Airfield :
LOGIN :

Register | Disclaimer

   EN    FR    IT 

 










Legend :    VFR   Marginal VFR   IFR   Intensive IFR   Very Intensive IFR
Visi :
Ceiling :
>= 8 km
>= 3000ft
5 to 8 km
1000 to 3000 ft
1500m to 5 km
500 to 1000 ft
800 to 1500m
200 to 500 ft
< 800m
< 200 ft
Symbols :   Thunderstorms  Fog  Heavy snow  Heavy precipitations  Wind > 20 kt
SIGMETs :     Misc.  Thunderstorms  Icing  Turbulence  Mountain Waves  Volcanic Ashes







- Airport Elevation : 24 ft
- IATA code : SGD


EKSB - Sonderborg

CURRENT METAR :
  • 211050Z AUTO 25014KT 9999NDV BKN015/// 18/15 Q1015

EXPIRED METARs :
  • 211020Z AUTO 26012G22KT 220V290 9999NDV BKN014/// 19/15 Q1015
  • 210950Z AUTO 25010KT 180V330 9999NDV BKN012/// 18/15 Q1014
  • 210920Z AUTO 25013KT 210V280 9999NDV BKN016/// 18/15 Q1014
  • 210850Z AUTO 26010KT 220V310 9999NDV BKN015/// 18/15 Q1014
  • 210820Z AUTO 25012KT 220V320 9999NDV BKN015/// 18/16 Q1013

TAF TAF EKSB
Valid from the 21 at 09:00 until the 21 at 18:00 UTC


210853Z 2109/2118 26013KT 9999 BKN015
TEMPO 2109/2113 BKN012
No reported NOTAMs for that airfield.



MET'MAP, your aeronautical weather chart ! - Copyright ORBIFLY December 2007 - Disclaimer

ORBIFLY MET'MAP TEAM :

Programming & Development : Alexandra Zaïnal
Concept & Development : Baudouin d'Aumeries
Co-Development & Prog : Marc-Olivier Méhu
Technical & hardware support : Manuel Goepfert

Contact : metmap@orbifly.com




SOURCES & CREDITS :

   NOAA